Time;durP1;ratioP1;P1;durP2;ratioP2;P2;SDS_P1;SDS_P2;PMS_P1;PMS_P2;Temp;Humidity;BMP_temperature;BMP_pressure;BME280_temperature;BME280_humidity;BME280_pressure;Samples;Min_cycle;Max_cycle;Signal;HPM_P1;HPM_P2
2023/08/04 00:00:10;;;;;;;1999.90;999.90;;;15.50;99.90;;;;;;5133008;27;20285;-70
2023/08/04 00:02:39;;;;;;;1999.90;999.90;;;15.50;99.90;;;;;;5132761;27;20177;-70
2023/08/04 00:05:05;;;;;;;1999.90;999.90;;;15.50;99.90;;;;;;5133092;27;20455;-70
2023/08/04 00:07:32;;;;;;;1999.90;999.90;;;15.50;99.90;;;;;;5133110;27;20774;-70
2023/08/04 00:09:58;;;;;;;1999.90;999.90;;;15.50;99.90;;;;;;5132901;28;20499;-70
2023/08/04 00:12:24;;;;;;;1999.90;999.90;;;15.40;99.90;;;;;;5132509;28;20551;-70
2023/08/04 00:14:50;;;;;;;1999.90;999.90;;;15.40;99.90;;;;;;5132826;28;20278;-70
2023/08/04 00:17:16;;;;;;;1999.90;999.90;;;15.40;99.90;;;;;;5133173;28;20176;-70
2023/08/04 00:19:42;;;;;;;1999.90;999.90;;;15.30;99.90;;;;;;5132833;28;20916;-71
2023/08/04 00:22:08;;;;;;;1999.90;999.90;;;15.30;99.90;;;;;;5132593;28;20400;-70
2023/08/04 00:24:34;;;;;;;1999.90;999.90;;;15.30;99.90;;;;;;5132801;28;20441;-70
2023/08/04 00:27:01;;;;;;;1999.90;999.90;;;15.50;99.90;;;;;;5132833;28;20411;-70
2023/08/04 00:29:26;;;;;;;1999.90;999.90;;;15.50;99.90;;;;;;5132753;28;20870;-70
2023/08/04 00:31:52;;;;;;;1999.90;999.90;;;15.60;99.90;;;;;;5132446;27;20484;-70
2023/08/04 00:34:18;;;;;;;1999.90;999.90;;;15.60;99.90;;;;;;5135740;27;20458;-70
2023/08/04 00:36:49;;;;;;;1999.90;999.90;;;15.60;99.90;;;;;;5136919;27;20260;-72
2023/08/04 00:39:15;;;;;;;1999.90;999.90;;;15.70;99.90;;;;;;5136952;27;20164;-70
2023/08/04 00:41:41;;;;;;;1999.90;999.90;;;15.70;99.90;;;;;;5136529;27;20930;-70
2023/08/04 00:44:06;;;;;;;1999.90;999.90;;;15.80;99.90;;;;;;5136677;27;20720;-70
2023/08/04 00:46:32;;;;;;;1999.90;999.90;;;15.70;99.90;;;;;;5136910;27;20179;-70
2023/08/04 00:48:59;;;;;;;1999.90;999.90;;;15.60;99.90;;;;;;5136672;27;20221;-70
2023/08/04 00:51:26;;;;;;;1999.90;999.90;;;15.60;99.90;;;;;;5136290;27;20201;-70
2023/08/04 00:53:52;;;;;;;1999.90;999.90;;;15.60;99.90;;;;;;5136564;27;20920;-70
2023/08/04 00:56:18;;;;;;;1999.90;999.90;;;15.50;99.90;;;;;;5136474;27;20398;-71
2023/08/04 00:58:44;;;;;;;1999.90;999.90;;;15.50;99.90;;;;;;5136488;27;20489;-71
2023/08/04 01:01:10;;;;;;;1999.90;999.90;;;15.40;99.90;;;;;;5136154;27;20478;-70
2023/08/04 01:03:38;;;;;;;1999.90;999.90;;;15.40;99.90;;;;;;5136362;27;20317;-70
2023/08/04 01:06:24;;;;;;;1999.90;999.90;;;15.50;99.90;;;;;;5136344;27;20212;-70
2023/08/04 01:09:31;;;;;;;1999.90;999.90;;;15.50;99.90;;;;;;5136268;27;20395;-70
2023/08/04 01:12:12;;;;;;;1999.90;999.90;;;15.40;99.90;;;;;;5111327;27;21001;-70
2023/08/04 01:14:41;;;;;;;1999.90;999.90;;;15.40;99.90;;;;;;5136200;27;20454;-69
2023/08/04 01:17:33;;;;;;;1999.90;999.90;;;15.50;99.90;;;;;;5136151;27;20406;-70
2023/08/04 01:19:59;;;;;;;1999.90;999.90;;;15.50;99.90;;;;;;5133441;27;20409;-70
2023/08/04 01:22:26;;;;;;;1999.90;999.90;;;15.50;99.90;;;;;;5135712;27;20420;-71
2023/08/04 01:24:53;;;;;;;1999.90;999.90;;;15.50;99.90;;;;;;5135972;27;20218;-70
2023/08/04 01:27:33;;;;;;;1999.90;999.90;;;15.50;99.90;;;;;;5135934;27;20506;-71
2023/08/04 01:30:01;;;;;;;1999.90;999.90;;;15.50;99.90;;;;;;5136002;27;20414;-69
2023/08/04 01:32:27;;;;;;;1999.90;999.90;;;15.60;99.90;;;;;;5135429;27;20457;-70
2023/08/04 01:34:53;;;;;;;1999.90;999.90;;;15.60;99.90;;;;;;5135730;27;20934;-70
2023/08/04 01:37:19;;;;;;;1999.90;999.90;;;15.60;99.90;;;;;;5135926;27;20394;-71
2023/08/04 01:39:45;;;;;;;1999.90;999.90;;;15.60;99.90;;;;;;5135783;27;20402;-69
2023/08/04 01:42:11;;;;;;;1999.90;999.90;;;15.60;99.90;;;;;;5135331;27;20807;-69
2023/08/04 01:44:36;;;;;;;1999.90;999.90;;;15.70;99.90;;;;;;5135081;27;20189;-70
2023/08/04 01:47:03;;;;;;;1999.90;999.90;;;15.60;99.90;;;;;;5135730;27;20641;-70
2023/08/04 01:49:28;;;;;;;1999.90;999.90;;;15.60;99.90;;;;;;5135707;27;20179;-70
2023/08/04 01:51:54;;;;;;;1999.90;999.90;;;15.60;99.90;;;;;;5135103;27;20812;-70
2023/08/04 01:54:20;;;;;;;1999.90;999.90;;;15.70;99.90;;;;;;5135377;27;20186;-71
2023/08/04 01:56:45;;;;;;;1999.90;999.90;;;15.60;99.90;;;;;;5135369;27;20162;-70
2023/08/04 01:59:11;;;;;;;1999.90;999.90;;;15.60;99.90;;;;;;5135391;27;20168;-70
2023/08/04 02:01:37;;;;;;;1999.90;999.90;;;15.60;99.90;;;;;;5134982;27;20288;-70
2023/08/04 02:04:02;;;;;;;1999.90;999.90;;;15.70;99.90;;;;;;5135319;27;20176;-70
2023/08/04 02:06:28;;;;;;;1999.90;999.90;;;15.50;99.90;;;;;;5135234;27;20202;-71
2023/08/04 02:08:53;;;;;;;1999.90;999.90;;;15.50;99.90;;;;;;5135155;27;20263;-69
2023/08/04 02:11:19;;;;;;;1999.90;999.90;;;15.50;99.90;;;;;;5134660;27;20211;-71
2023/08/04 02:13:44;;;;;;;1999.90;999.90;;;15.50;99.90;;;;;;5135009;27;20172;-71
2023/08/04 02:16:10;;;;;;;1999.90;999.90;;;15.50;99.90;;;;;;5135119;27;20188;-71
2023/08/04 02:18:35;;;;;;;1999.90;999.90;;;15.60;99.90;;;;;;5134989;27;20169;-71
2023/08/04 02:21:01;;;;;;;1999.90;999.90;;;15.50;99.90;;;;;;5134620;27;20229;-71
2023/08/04 02:23:27;;;;;;;1999.90;999.90;;;15.50;99.90;;;;;;5134903;27;20172;-71
2023/08/04 02:25:52;;;;;;;1999.90;999.90;;;15.50;99.90;;;;;;5134721;27;20264;-71
2023/08/04 02:28:18;;;;;;;1999.90;999.90;;;15.60;99.90;;;;;;5134782;27;20167;-71
2023/08/04 02:30:43;;;;;;;1999.90;999.90;;;15.60;99.90;;;;;;5134668;27;20584;-71
2023/08/04 02:33:09;;;;;;;1999.90;999.90;;;15.60;99.90;;;;;;5134374;27;20202;-71
2023/08/04 02:35:35;;;;;;;1999.90;999.90;;;15.60;99.90;;;;;;5134513;27;20193;-71
2023/08/04 02:38:00;;;;;;;1999.90;999.90;;;15.60;99.90;;;;;;5134638;27;20211;-71
2023/08/04 02:40:26;;;;;;;1999.90;999.90;;;15.60;99.90;;;;;;5134453;27;20189;-71
2023/08/04 02:42:51;;;;;;;1999.90;999.90;;;15.60;99.90;;;;;;5134249;27;20550;-71
2023/08/04 02:45:17;;;;;;;1999.90;999.90;;;15.60;99.90;;;;;;5134501;27;20194;-71
2023/08/04 02:47:42;;;;;;;1999.90;999.90;;;15.70;99.90;;;;;;5134350;27;20174;-71
2023/08/04 02:50:08;;;;;;;1999.90;999.90;;;15.60;99.90;;;;;;5134346;27;20170;-71
2023/08/04 02:52:34;;;;;;;1999.90;999.90;;;15.60;99.90;;;;;;5133919;27;20207;-71
2023/08/04 02:55:00;;;;;;;1999.90;999.90;;;15.60;99.90;;;;;;5133900;27;20192;-71
2023/08/04 02:57:31;;;;;;;1999.90;999.90;;;15.60;99.90;;;;;;5133506;27;21040;-71
2023/08/04 03:00:00;;;;;;;1999.90;999.90;;;15.50;99.90;;;;;;5134327;27;20779;-71
2023/08/04 03:02:26;;;;;;;1999.90;999.90;;;15.50;99.90;;;;;;5133942;27;20478;-71
2023/08/04 03:04:52;;;;;;;1999.90;999.90;;;15.50;99.90;;;;;;5133961;27;20430;-71
2023/08/04 03:07:17;;;;;;;1999.90;999.90;;;15.50;99.90;;;;;;5133993;27;20413;-71
2023/08/04 03:09:43;;;;;;;1999.90;999.90;;;15.50;99.90;;;;;;5133923;27;20221;-71
2023/08/04 03:12:09;;;;;;;1999.90;999.90;;;15.30;99.90;;;;;;5133543;27;20200;-71
2023/08/04 03:14:34;;;;;;;1999.90;999.90;;;15.70;99.90;;;;;;5133970;27;20271;-71
2023/08/04 03:17:00;;;;;;;1999.90;999.90;;;15.80;99.90;;;;;;5133895;27;20407;-71
2023/08/04 03:19:25;;;;;;;1999.90;999.90;;;15.70;99.90;;;;;;5133802;27;20682;-71
2023/08/04 03:21:51;;;;;;;1999.90;999.90;;;15.70;99.90;;;;;;5133599;27;20178;-71
2023/08/04 03:24:17;;;;;;;1999.90;999.90;;;15.70;99.90;;;;;;5133540;27;20197;-71
2023/08/04 03:26:42;;;;;;;1999.90;999.90;;;15.70;99.90;;;;;;5133807;27;20643;-71
2023/08/04 03:29:08;;;;;;;1999.90;999.90;;;15.70;99.90;;;;;;5133724;27;20176;-71
2023/08/04 03:31:33;;;;;;;1999.90;999.90;;;15.70;99.90;;;;;;5133219;27;20845;-71
2023/08/04 03:33:59;;;;;;;1999.90;999.90;;;15.70;99.90;;;;;;5133442;27;20221;-71
2023/08/04 03:36:24;;;;;;;1999.90;999.90;;;15.70;99.90;;;;;;5133496;27;20164;-71
2023/08/04 03:38:50;;;;;;;1999.90;999.90;;;15.70;99.90;;;;;;5133379;27;20232;-71
2023/08/04 03:41:16;;;;;;;1999.90;999.90;;;15.70;99.90;;;;;;5133145;27;20225;-71
2023/08/04 03:43:41;;;;;;;1999.90;999.90;;;15.80;99.90;;;;;;5133310;27;20157;-71
2023/08/04 03:46:07;;;;;;;1999.90;999.90;;;15.70;99.90;;;;;;5133280;27;20181;-71
2023/08/04 03:48:32;;;;;;;1999.90;999.90;;;15.70;99.90;;;;;;5133354;27;20212;-71
2023/08/04 03:50:58;;;;;;;1999.90;999.90;;;15.70;99.90;;;;;;5132957;27;20193;-71
2023/08/04 03:53:23;;;;;;;1999.90;999.90;;;15.70;99.90;;;;;;5133113;27;20197;-71
2023/08/04 03:55:49;;;;;;;1999.90;999.90;;;15.80;99.90;;;;;;5133089;27;20192;-71
2023/08/04 03:58:14;;;;;;;1999.90;999.90;;;15.70;99.90;;;;;;5133149;27;20653;-71
2023/08/04 04:00:40;;;;;;;1999.90;999.90;;;15.70;99.90;;;;;;5131873;27;20164;-71
2023/08/04 04:03:05;;;;;;;1999.90;999.90;;;15.80;99.90;;;;;;5129438;27;20181;-70
2023/08/04 04:05:31;;;;;;;1999.90;999.90;;;15.80;99.90;;;;;;5132831;27;20203;-71
2023/08/04 04:07:57;;;;;;;1999.90;999.90;;;15.80;99.90;;;;;;5132828;27;20175;-71
2023/08/04 04:10:22;;;;;;;1999.90;999.90;;;15.70;99.90;;;;;;5133006;27;20178;-71
2023/08/04 04:12:48;;;;;;;1999.90;999.90;;;15.60;99.90;;;;;;5132917;28;20207;-70
2023/08/04 04:15:13;;;;;;;1999.90;999.90;;;15.60;99.90;;;;;;5132994;28;20258;-71
2023/08/04 04:17:39;;;;;;;1999.90;999.90;;;15.50;99.90;;;;;;5132989;28;20662;-70
2023/08/04 04:20:05;;;;;;;1999.90;999.90;;;15.60;99.90;;;;;;5132898;28;20248;-70
2023/08/04 04:22:33;;;;;;;1999.90;999.90;;;15.60;99.90;;;;;;5132159;27;20777;-70
2023/08/04 04:24:59;;;;;;;1999.90;999.90;;;15.60;99.90;;;;;;5132737;28;20438;-70
2023/08/04 04:27:25;;;;;;;1999.90;999.90;;;15.60;99.90;;;;;;5132816;28;20410;-70
2023/08/04 04:29:50;;;;;;;1999.90;999.90;;;15.50;99.90;;;;;;5132863;28;20407;-70
2023/08/04 04:32:16;;;;;;;1999.90;999.90;;;15.50;99.90;;;;;;5132446;28;20196;-70
2023/08/04 04:34:42;;;;;;;1999.90;999.90;;;15.50;99.90;;;;;;5132772;28;20182;-71
2023/08/04 04:37:07;;;;;;;1999.90;999.90;;;15.50;99.90;;;;;;5132724;28;20173;-70
2023/08/04 04:39:33;;;;;;;1999.90;999.90;;;15.50;99.90;;;;;;5132731;28;20165;-70
2023/08/04 04:41:58;;;;;;;1999.90;999.90;;;15.50;99.90;;;;;;5132527;28;20169;-70
2023/08/04 04:44:24;;;;;;;1999.90;999.90;;;15.50;99.90;;;;;;5132600;28;20584;-70
2023/08/04 04:46:50;;;;;;;1999.90;999.90;;;15.60;99.90;;;;;;5132753;28;20168;-70
2023/08/04 04:49:16;;;;;;;1999.90;999.90;;;15.50;99.90;;;;;;5132702;28;20732;-70
2023/08/04 04:51:42;;;;;;;1999.90;999.90;;;15.50;99.90;;;;;;5132237;28;20198;-70
2023/08/04 04:54:08;;;;;;;1999.90;999.90;;;15.60;99.90;;;;;;5132409;28;20395;-71
2023/08/04 04:56:33;;;;;;;1999.90;999.90;;;15.50;99.90;;;;;;5132476;28;20967;-71
2023/08/04 04:58:59;;;;;;;1999.90;999.90;;;15.50;99.90;;;;;;5130073;28;20182;-71
2023/08/04 05:01:25;;;;;;;1999.90;999.90;;;15.50;99.90;;;;;;5130736;28;20203;-70
2023/08/04 05:03:50;;;;;;;1999.90;999.90;;;15.60;99.90;;;;;;5132415;28;20176;-71
2023/08/04 05:06:16;;;;;;;1999.90;999.90;;;15.60;99.90;;;;;;5132317;28;20191;-70
2023/08/04 05:08:41;;;;;;;1999.90;999.90;;;15.70;99.90;;;;;;5132493;28;20242;-71
2023/08/04 05:11:07;;;;;;;1999.90;999.90;;;15.70;99.90;;;;;;5132018;28;20217;-71
2023/08/04 05:13:33;;;;;;;1999.90;999.90;;;15.70;99.90;;;;;;5132324;28;20163;-70
2023/08/04 05:15:58;;;;;;;1999.90;999.90;;;15.70;99.90;;;;;;5132267;28;20181;-70
2023/08/04 05:18:24;;;;;;;1999.90;999.90;;;15.70;99.90;;;;;;5132444;27;20229;-70
2023/08/04 05:20:49;;;;;;;1999.90;999.90;;;15.70;99.90;;;;;;5135871;27;20213;-71
2023/08/04 05:23:16;;;;;;;1999.90;999.90;;;15.70;99.90;;;;;;5135807;27;20184;-71
2023/08/04 05:25:42;;;;;;;1999.90;999.90;;;15.60;99.90;;;;;;5135932;27;20182;-70
2023/08/04 05:28:37;;;;;;;1999.90;999.90;;;15.70;99.90;;;;;;5135948;27;20403;-70
2023/08/04 05:31:03;;;;;;;1999.90;999.90;;;15.80;99.90;;;;;;5122445;27;20418;-70
2023/08/04 05:33:31;;;;;;;1999.90;999.90;;;15.90;99.90;;;;;;5135698;27;20441;-70
2023/08/04 05:35:57;;;;;;;1999.90;999.90;;;15.90;99.90;;;;;;5136005;27;20931;-71
2023/08/04 05:38:23;;;;;;;1999.90;999.90;;;16.00;99.90;;;;;;5135828;27;20458;-71
2023/08/04 05:40:49;;;;;;;1999.90;999.90;;;15.90;99.90;;;;;;5135639;27;20486;-70
2023/08/04 05:43:16;;;;;;;1999.90;999.90;;;16.00;99.90;;;;;;5135456;27;20175;-70
2023/08/04 05:45:44;;;;;;;1999.90;999.90;;;16.00;99.90;;;;;;5135600;27;20515;-70
2023/08/04 05:48:10;;;;;;;1999.90;999.90;;;16.00;99.90;;;;;;5135509;27;20428;-70
2023/08/04 05:50:36;;;;;;;1999.90;999.90;;;16.00;99.90;;;;;;5135620;27;20946;-70
2023/08/04 05:53:02;;;;;;;1999.90;999.90;;;16.10;99.90;;;;;;5135227;27;20450;-71
2023/08/04 05:55:28;;;;;;;1999.90;999.90;;;16.10;99.90;;;;;;5135323;27;20425;-71
2023/08/04 05:57:56;;;;;;;1999.90;999.90;;;16.10;99.90;;;;;;5135413;27;20457;-71
2023/08/04 06:00:22;;;;;;;1999.90;999.90;;;16.20;99.90;;;;;;5135342;27;20968;-70
2023/08/04 06:02:47;;;;;;;1999.90;999.90;;;16.30;99.90;;;;;;5134936;27;20399;-71
2023/08/04 06:05:13;;;;;;;1999.90;999.90;;;16.30;99.90;;;;;;5135167;27;20502;-71
2023/08/04 06:07:40;;;;;;;1999.90;999.90;;;16.40;99.90;;;;;;5135244;27;20247;-71
2023/08/04 06:10:07;;;;;;;1999.90;999.90;;;16.40;99.90;;;;;;5135107;27;20266;-71
2023/08/04 06:12:33;;;;;;;1999.90;999.90;;;16.50;99.90;;;;;;5134667;27;20497;-71
2023/08/04 06:14:59;;;;;;;1999.90;999.90;;;16.50;99.90;;;;;;5134970;27;20473;-71
2023/08/04 06:17:25;;;;;;;1999.90;999.90;;;16.50;99.90;;;;;;5127813;27;20434;-71
2023/08/04 06:19:50;;;;;;;1999.90;999.90;;;16.50;99.90;;;;;;5134817;27;20175;-71
2023/08/04 06:22:16;;;;;;;1999.90;999.90;;;16.50;99.90;;;;;;5134613;27;20184;-71
2023/08/04 06:24:42;;;;;;;1999.90;999.90;;;16.50;99.90;;;;;;5134813;27;20191;-71
2023/08/04 06:27:08;;;;;;;1999.90;999.90;;;16.50;99.90;;;;;;5134824;27;20230;-71
2023/08/04 06:29:34;;;;;;;1999.90;999.90;;;16.50;99.90;;;;;;5134732;27;20412;-71
2023/08/04 06:32:00;;;;;;;1999.90;999.90;;;16.50;99.90;;;;;;5134467;27;20454;-71
2023/08/04 06:34:26;;;;;;;1999.90;999.90;;;16.50;99.90;;;;;;5134591;27;20447;-71
2023/08/04 06:36:51;;;;;;;1999.90;999.90;;;16.60;99.90;;;;;;5134631;27;20409;-71
2023/08/04 06:39:17;;;;;;;1999.90;999.90;;;16.70;99.90;;;;;;5134523;27;20165;-71
2023/08/04 06:41:43;;;;;;;1999.90;999.90;;;16.70;99.90;;;;;;5134237;27;20167;-71
2023/08/04 06:44:10;;;;;;;1999.90;999.90;;;16.60;99.90;;;;;;5134382;27;20413;-71
2023/08/04 06:46:35;;;;;;;1999.90;999.90;;;16.60;99.90;;;;;;5133684;27;20407;-71
2023/08/04 06:49:01;;;;;;;1999.90;999.90;;;16.60;99.90;;;;;;5133315;27;20409;-71
2023/08/04 06:51:26;;;;;;;1999.90;999.90;;;16.70;99.90;;;;;;5132854;27;20177;-71
2023/08/04 06:53:52;;;;;;;1999.90;999.90;;;16.60;99.90;;;;;;5134199;27;20177;-71
2023/08/04 06:56:18;;;;;;;1999.90;999.90;;;16.70;99.90;;;;;;5134122;27;20561;-71
2023/08/04 06:58:44;;;;;;;1999.90;999.90;;;16.60;99.90;;;;;;5129727;27;20224;-71
2023/08/04 07:01:09;;;;;;;1999.90;999.90;;;16.60;99.90;;;;;;5132173;27;20405;-70
2023/08/04 07:03:35;;;;;;;1999.90;999.90;;;16.70;99.90;;;;;;5132811;27;20164;-70
2023/08/04 07:06:00;;;;;;;1999.90;999.90;;;16.70;99.90;;;;;;5133132;27;20266;-71
2023/08/04 07:08:26;;;;;;;1999.90;999.90;;;16.80;99.90;;;;;;5122100;27;20178;-70
2023/08/04 07:10:52;;;;;;;1999.90;999.90;;;16.80;99.90;;;;;;5133562;27;20173;-70
2023/08/04 07:13:17;;;;;;;1999.90;999.90;;;16.90;99.90;;;;;;5133738;27;20272;-70
2023/08/04 07:15:55;;;;;;;1999.90;999.90;;;17.00;99.90;;;;;;5132757;27;20212;-70
2023/08/04 07:18:20;;;;;;;1999.90;999.90;;;17.00;99.90;;;;;;5133876;27;20468;-71
2023/08/04 07:20:46;;;;;;;1999.90;999.90;;;17.10;99.90;;;;;;5133847;27;20480;-69
2023/08/04 07:23:12;;;;;;;1999.90;999.90;;;17.10;99.90;;;;;;5133465;27;20169;-69
2023/08/04 07:25:37;;;;;;;1999.90;999.90;;;17.20;99.90;;;;;;5133563;27;20247;-70
2023/08/04 07:28:03;;;;;;;1999.90;999.90;;;17.30;99.90;;;;;;5133506;27;20534;-69
2023/08/04 07:30:30;;;;;;;1999.90;999.90;;;17.30;99.90;;;;;;5127852;27;20188;-71
2023/08/04 07:32:55;;;;;;;1999.90;999.90;;;17.40;99.90;;;;;;5133183;27;20241;-69
2023/08/04 07:35:21;;;;;;;1999.90;999.90;;;17.40;99.90;;;;;;5133337;27;20456;-70
2023/08/04 07:37:46;;;;;;;1999.90;999.90;;;17.50;99.90;;;;;;5133345;27;20165;-69
2023/08/04 07:40:13;;;;;;;1999.90;999.90;;;17.60;99.90;;;;;;5133435;27;20652;-69
2023/08/04 07:42:39;;;;;;;1999.90;999.90;;;17.70;99.90;;;;;;5132576;27;20207;-70
2023/08/04 07:45:05;;;;;;;1999.90;999.90;;;17.80;99.90;;;;;;5133212;27;21086;-69
2023/08/04 07:47:30;;;;;;;1999.90;999.90;;;17.90;99.90;;;;;;5133132;27;20267;-70
2023/08/04 07:49:56;;;;;;;1999.90;999.90;;;18.00;99.90;;;;;;5133307;27;20434;-70
2023/08/04 07:52:21;;;;;;;1999.90;999.90;;;18.00;99.90;;;;;;5132848;27;20733;-70
2023/08/04 07:54:47;;;;;;;1999.90;999.90;;;18.20;99.90;;;;;;5133353;27;20188;-69
2023/08/04 07:57:12;;;;;;;1999.90;999.90;;;18.20;99.90;;;;;;5132994;27;20223;-70
2023/08/04 07:59:38;;;;;;;1999.90;999.90;;;18.40;99.90;;;;;;5131456;27;20206;-70
2023/08/04 08:02:04;;;;;;;1999.90;999.90;;;18.50;99.90;;;;;;5132737;27;20235;-70
2023/08/04 08:04:29;;;;;;;1999.90;999.90;;;18.60;99.90;;;;;;5129885;27;20189;-71
2023/08/04 08:06:55;;;;;;;1999.90;999.90;;;18.70;99.90;;;;;;5133032;27;20170;-69
2023/08/04 08:09:20;;;;;;;1999.90;999.90;;;18.80;99.90;;;;;;5132975;27;20177;-69
2023/08/04 08:11:46;;;;;;;1999.90;999.90;;;18.90;99.90;;;;;;5132451;27;20206;-70
2023/08/04 08:14:11;;;;;;;1999.90;999.90;;;19.00;99.90;;;;;;5132812;28;20166;-71
2023/08/04 08:16:37;;;;;;;1999.90;999.90;;;19.10;99.90;;;;;;5132906;28;20222;-70
2023/08/04 08:19:03;;;;;;;1999.90;999.90;;;19.10;99.90;;;;;;5132940;28;20160;-70
2023/08/04 08:21:30;;;;;;;1999.90;999.90;;;19.00;99.90;;;;;;5132618;28;20280;-70
2023/08/04 08:23:56;;;;;;;1999.90;999.90;;;18.90;99.90;;;;;;5132741;28;20407;-73
2023/08/04 08:26:22;;;;;;;1999.90;999.90;;;19.00;99.90;;;;;;5132833;28;20523;-73
2023/08/04 08:28:47;;;;;;;1999.90;999.90;;;19.00;99.90;;;;;;5132787;28;20201;-73
2023/08/04 08:31:13;;;;;;;1999.90;999.90;;;18.90;99.90;;;;;;5132593;28;20186;-73
2023/08/04 08:33:38;;;;;;;1999.90;999.90;;;18.80;99.90;;;;;;5132776;28;20195;-71
2023/08/04 08:36:05;;;;;;;1999.90;999.90;;;18.70;99.90;;;;;;5132800;28;20559;-71
2023/08/04 08:38:31;;;;;;;1999.90;999.90;;;18.70;99.90;;;;;;5132742;28;20232;-71
2023/08/04 08:40:56;;;;;;;1999.90;999.90;;;18.70;99.90;;;;;;5132354;28;20873;-71
2023/08/04 08:43:22;;;;;;;1999.90;999.90;;;18.80;99.90;;;;;;5132856;28;20174;-71
2023/08/04 08:45:49;;;;;;;1999.90;999.90;;;18.90;99.90;;;;;;5132788;28;20191;-70
2023/08/04 08:48:15;;;;;;;1999.90;999.90;;;19.10;99.90;;;;;;5132661;28;20178;-71
2023/08/04 08:50:43;;;;;;;1999.90;999.90;;;19.30;99.90;;;;;;5132653;27;20720;-71
2023/08/04 08:53:13;;;;;;;1999.90;999.90;;;19.40;99.90;;;;;;5132271;27;20448;-71
2023/08/04 08:55:40;;;;;;;1999.90;999.90;;;19.40;99.90;;;;;;5135990;27;20449;-71
2023/08/04 08:58:06;;;;;;;1999.90;999.90;;;19.40;99.90;;;;;;5137006;27;20846;-71
2023/08/04 09:00:33;;;;;;;1999.90;999.90;;;19.40;99.90;;;;;;5136477;27;20448;-71
2023/08/04 09:02:59;;;;;;;1999.90;999.90;;;19.60;99.90;;;;;;5136230;27;20579;-71
2023/08/04 09:05:24;;;;;;;1999.90;999.90;;;19.60;99.90;;;;;;5136388;27;20436;-71
2023/08/04 09:07:50;;;;;;;1999.90;999.90;;;19.60;99.90;;;;;;5136331;27;20628;-71
2023/08/04 09:10:16;;;;;;;1999.90;999.90;;;19.30;99.90;;;;;;5136252;27;20166;-71
2023/08/04 09:12:44;;;;;;;1999.90;999.90;;;19.20;99.90;;;;;;5135859;27;20199;-71
2023/08/04 09:15:10;;;;;;;1999.90;999.90;;;19.30;99.90;;;;;;5136293;27;20419;-71
2023/08/04 09:17:38;;;;;;;1999.90;999.90;;;19.30;99.90;;;;;;5136167;27;20500;-71
2023/08/04 09:20:06;;;;;;;1999.90;999.90;;;19.30;99.90;;;;;;5136108;27;20464;-71
2023/08/04 09:22:35;;;;;;;1999.90;999.90;;;19.20;99.90;;;;;;5131522;27;20416;-71
2023/08/04 09:25:05;;;;;;;1999.90;999.90;;;19.10;99.90;;;;;;5135959;27;20431;-71
2023/08/04 09:27:33;;;;;;;1999.90;999.90;;;19.00;99.90;;;;;;5133553;27;20410;-73
2023/08/04 09:30:01;;;;;;;1999.90;999.90;;;19.20;99.90;;;;;;5124382;27;20435;-74
2023/08/04 09:32:28;;;;;;;1999.90;999.90;;;19.50;99.90;;;;;;5130439;27;20667;-72
2023/08/04 09:35:00;;;;;;;1999.90;999.90;;;19.10;99.90;;;;;;5117423;27;20442;-73
2023/08/04 09:37:26;;;;;;;1999.90;999.90;;;19.20;99.90;;;;;;5126315;27;20417;-74
2023/08/04 09:39:52;;;;;;;1999.90;999.90;;;19.20;99.90;;;;;;5130966;27;20412;-74
2023/08/04 09:42:21;;;;;;;1999.90;999.90;;;19.30;99.90;;;;;;5129848;27;20421;-74
2023/08/04 09:44:52;;;;;;;1999.90;999.90;;;19.30;99.90;;;;;;5130126;27;20195;-71
2023/08/04 09:47:20;;;;;;;1999.90;999.90;;;19.20;99.90;;;;;;5130639;27;20417;-74
2023/08/04 09:49:46;;;;;;;1999.90;999.90;;;19.20;99.90;;;;;;5130287;27;20469;-70
2023/08/04 09:52:17;;;;;;;1999.90;999.90;;;19.30;99.90;;;;;;5130295;27;20542;-71
2023/08/04 09:54:43;;;;;;;1999.90;999.90;;;19.40;99.90;;;;;;5127999;27;20303;-70
2023/08/04 09:57:09;;;;;;;1999.90;999.90;;;19.60;99.90;;;;;;5127524;27;20501;-69
2023/08/04 09:59:35;;;;;;;1999.90;999.90;;;19.40;99.90;;;;;;5129622;27;20180;-74
2023/08/04 10:02:01;;;;;;;1999.90;999.90;;;19.30;99.90;;;;;;5129823;27;20241;-69
2023/08/04 10:04:27;;;;;;;1999.90;999.90;;;19.40;99.90;;;;;;5129927;27;20528;-72
2023/08/04 10:06:54;;;;;;;1999.90;999.90;;;19.60;99.90;;;;;;5129774;27;20514;-73
2023/08/04 10:09:21;;;;;;;1999.90;999.90;;;19.70;99.90;;;;;;5129648;27;20420;-72
2023/08/04 10:11:47;;;;;;;1999.90;999.90;;;19.80;99.90;;;;;;5130555;27;20711;-71
2023/08/04 10:14:13;;;;;;;1999.90;999.90;;;19.90;99.90;;;;;;5129283;27;20503;-72
2023/08/04 10:16:39;;;;;;;1999.90;999.90;;;20.00;99.90;;;;;;5130280;27;20784;-73
2023/08/04 10:19:09;;;;;;;1999.90;999.90;;;19.80;99.90;;;;;;5130890;27;20172;-73
2023/08/04 10:21:40;;;;;;;1999.90;999.90;;;20.00;99.90;;;;;;5129576;27;20422;-71
2023/08/04 10:24:07;;;;;;;1999.90;999.90;;;20.20;99.90;;;;;;5123797;27;20868;-70
2023/08/04 10:26:35;;;;;;;1999.90;999.90;;;20.30;99.90;;;;;;5115126;27;20429;-71
2023/08/04 10:29:04;;;;;;;1999.90;999.90;;;20.40;99.90;;;;;;5116633;27;20434;-71
2023/08/04 10:31:55;;;;;;;1999.90;999.90;;;20.60;99.90;;;;;;5125477;27;21025;-69
2023/08/04 10:34:32;;;;;;;1999.90;999.90;;;20.70;99.90;;;;;;5114387;27;20452;-76
2023/08/04 10:37:11;;;;;;;1999.90;999.90;;;20.80;99.90;;;;;;5122666;27;20502;-77
2023/08/04 10:39:42;;;;;;;1999.90;999.90;;;21.00;99.90;;;;;;5127701;27;20432;-77
2023/08/04 10:42:20;;;;;;;1999.90;999.90;;;21.30;99.90;;;;;;5129779;27;20396;-70
2023/08/04 10:44:55;;;;;;;1999.90;999.90;;;21.40;99.90;;;;;;5127162;27;20473;-69
2023/08/04 10:47:47;;;;;;;1999.90;999.90;;;21.70;99.90;;;;;;5130158;27;20392;-71
2023/08/04 10:50:14;;;;;;;1999.90;999.90;;;22.20;99.90;;;;;;5122991;27;20413;-70
2023/08/04 10:52:40;;;;;;;1999.90;999.90;;;22.80;99.90;;;;;;5129399;27;20480;-76
2023/08/04 10:55:09;;;;;;;1999.90;999.90;;;23.20;99.90;;;;;;5129386;27;20855;-71
2023/08/04 10:57:37;;;;;;;1999.90;999.90;;;23.10;99.90;;;;;;5128922;27;20410;-69
2023/08/04 11:00:07;;;;;;;1999.90;999.90;;;22.90;99.90;;;;;;5126503;27;20509;-70
2023/08/04 11:02:34;;;;;;;1999.90;999.90;;;22.80;99.90;;;;;;5123619;27;20510;-71
2023/08/04 11:05:01;;;;;;;1999.90;999.90;;;22.80;99.90;;;;;;5118598;27;20562;-69
2023/08/04 11:07:27;;;;;;;1999.90;999.90;;;22.80;99.90;;;;;;5113214;27;20509;-71
2023/08/04 11:09:53;;;;;;;1999.90;999.90;;;22.50;99.90;;;;;;5123348;27;20504;-69
2023/08/04 11:12:19;;;;;;;1999.90;999.90;;;22.30;99.90;;;;;;5125405;27;20820;-69
2023/08/04 11:14:45;;;;;;;1999.90;999.90;;;22.20;99.90;;;;;;5118680;27;20445;-72
2023/08/04 11:17:16;;;;;;;1999.90;999.90;;;22.20;99.90;;;;;;5128527;27;20486;-69
2023/08/04 11:19:43;;;;;;;1999.90;999.90;;;22.30;99.90;;;;;;5128274;27;20414;-71
2023/08/04 11:22:13;;;;;;;1999.90;999.90;;;22.30;99.90;;;;;;5128831;27;20556;-71
2023/08/04 11:24:39;;;;;;;1999.90;999.90;;;22.30;99.90;;;;;;5129387;27;20837;-71
2023/08/04 11:27:06;;;;;;;1999.90;999.90;;;22.40;99.90;;;;;;5129037;27;20818;-71
2023/08/04 11:29:32;;;;;;;1999.90;999.90;;;22.40;99.90;;;;;;5128783;27;20415;-71
2023/08/04 11:31:58;;;;;;;1999.90;999.90;;;22.60;99.90;;;;;;5129314;27;20459;-71
2023/08/04 11:34:23;;;;;;;1999.90;999.90;;;23.00;99.90;;;;;;5128253;27;20493;-72
2023/08/04 11:36:50;;;;;;;1999.90;999.90;;;23.10;99.90;;;;;;5128764;27;20168;-69
2023/08/04 11:39:15;;;;;;;1999.90;999.90;;;23.30;99.90;;;;;;5129692;27;20222;-70
2023/08/04 11:41:44;;;;;;;1999.90;999.90;;;23.30;99.90;;;;;;5128702;27;20473;-69
2023/08/04 11:44:10;;;;;;;1999.90;999.90;;;23.40;99.90;;;;;;5128738;27;20191;-72
2023/08/04 11:46:36;;;;;;;1999.90;999.90;;;23.60;99.90;;;;;;5129548;27;20415;-69
2023/08/04 11:49:06;;;;;;;1999.90;999.90;;;23.90;99.90;;;;;;5128386;27;20208;-69
2023/08/04 11:51:32;;;;;;;1999.90;999.90;;;23.90;99.90;;;;;;5128374;27;20172;-73
2023/08/04 11:53:58;;;;;;;1999.90;999.90;;;24.00;99.90;;;;;;5128760;27;20833;-73
2023/08/04 11:56:24;;;;;;;1999.90;999.90;;;23.90;99.90;;;;;;5128512;27;20410;-69